sensor_id;sensor_type;location;lat;lon;timestamp;pressure;altitude;pressure_sealevel;temperature;humidity
70304;BME280;57712;48.752;11.348;2024-01-16T00:00:56;96729.06;;;-0.45;100.00
70304;BME280;57712;48.752;11.348;2024-01-16T00:03:23;96724.59;;;-0.34;100.00
70304;BME280;57712;48.752;11.348;2024-01-16T00:05:50;96728.53;;;-0.58;100.00
70304;BME280;57712;48.752;11.348;2024-01-16T00:08:17;96728.75;;;-0.40;100.00
70304;BME280;57712;48.752;11.348;2024-01-16T00:10:43;96727.34;;;-0.31;100.00
70304;BME280;57712;48.752;11.348;2024-01-16T00:13:10;96726.59;;;-0.27;100.00
70304;BME280;57712;48.752;11.348;2024-01-16T00:15:37;96727.78;;;-0.25;100.00
70304;BME280;57712;48.752;11.348;2024-01-16T00:18:03;96729.72;;;-0.22;100.00
70304;BME280;57712;48.752;11.348;2024-01-16T00:20:30;96733.25;;;-0.18;100.00
70304;BME280;57712;48.752;11.348;2024-01-16T00:22:57;96738.09;;;-0.31;100.00
70304;BME280;57712;48.752;11.348;2024-01-16T00:25:24;96738.88;;;-0.30;100.00
70304;BME280;57712;48.752;11.348;2024-01-16T00:27:51;96744.03;;;-0.18;100.00
70304;BME280;57712;48.752;11.348;2024-01-16T00:30:18;96743.91;;;-0.25;100.00
70304;BME280;57712;48.752;11.348;2024-01-16T00:32:44;96745.81;;;-0.29;100.00
70304;BME280;57712;48.752;11.348;2024-01-16T00:35:12;96751.59;;;-0.27;100.00
70304;BME280;57712;48.752;11.348;2024-01-16T00:37:39;96750.25;;;-0.10;100.00
70304;BME280;57712;48.752;11.348;2024-01-16T00:40:06;96741.63;;;-0.23;100.00
70304;BME280;57712;48.752;11.348;2024-01-16T00:42:36;96754.94;;;-0.37;100.00
70304;BME280;57712;48.752;11.348;2024-01-16T00:45:03;96745.47;;;-0.24;100.00
70304;BME280;57712;48.752;11.348;2024-01-16T00:47:31;96752.22;;;-0.37;100.00
70304;BME280;57712;48.752;11.348;2024-01-16T00:49:58;96757.88;;;-0.46;100.00
70304;BME280;57712;48.752;11.348;2024-01-16T00:52:28;96755.09;;;-0.53;100.00
70304;BME280;57712;48.752;11.348;2024-01-16T00:54:55;96744.34;;;-0.53;100.00
70304;BME280;57712;48.752;11.348;2024-01-16T00:57:22;96749.00;;;-0.50;100.00
70304;BME280;57712;48.752;11.348;2024-01-16T00:59:48;96754.66;;;-0.59;100.00
70304;BME280;57712;48.752;11.348;2024-01-16T01:02:15;96758.16;;;-0.54;100.00
70304;BME280;57712;48.752;11.348;2024-01-16T01:04:42;96752.63;;;-0.65;100.00
70304;BME280;57712;48.752;11.348;2024-01-16T01:07:12;96765.41;;;-0.59;100.00
70304;BME280;57712;48.752;11.348;2024-01-16T01:09:39;96767.72;;;-0.57;100.00
70304;BME280;57712;48.752;11.348;2024-01-16T01:12:06;96767.19;;;-0.70;100.00
70304;BME280;57712;48.752;11.348;2024-01-16T01:14:34;96772.28;;;-0.61;100.00
70304;BME280;57712;48.752;11.348;2024-01-16T01:17:01;96772.47;;;-0.73;100.00
70304;BME280;57712;48.752;11.348;2024-01-16T01:19:28;96781.66;;;-0.78;100.00
70304;BME280;57712;48.752;11.348;2024-01-16T01:21:54;96785.47;;;-0.79;100.00
70304;BME280;57712;48.752;11.348;2024-01-16T01:24:21;96784.22;;;-0.85;100.00
70304;BME280;57712;48.752;11.348;2024-01-16T01:26:48;96787.53;;;-0.69;100.00
70304;BME280;57712;48.752;11.348;2024-01-16T01:29:15;96785.47;;;-0.79;100.00
70304;BME280;57712;48.752;11.348;2024-01-16T01:31:45;96785.22;;;-0.70;100.00
70304;BME280;57712;48.752;11.348;2024-01-16T01:34:12;96794.00;;;-0.73;100.00
70304;BME280;57712;48.752;11.348;2024-01-16T01:36:39;96800.78;;;-0.83;100.00
70304;BME280;57712;48.752;11.348;2024-01-16T01:39:06;96808.84;;;-0.83;100.00
70304;BME280;57712;48.752;11.348;2024-01-16T01:41:32;96816.84;;;-0.87;100.00
70304;BME280;57712;48.752;11.348;2024-01-16T01:44:00;96812.66;;;-0.84;100.00
70304;BME280;57712;48.752;11.348;2024-01-16T01:46:26;96829.69;;;-0.76;100.00
70304;BME280;57712;48.752;11.348;2024-01-16T01:48:54;96839.63;;;-0.80;100.00
70304;BME280;57712;48.752;11.348;2024-01-16T01:51:21;96842.34;;;-0.77;100.00
70304;BME280;57712;48.752;11.348;2024-01-16T01:53:49;96839.97;;;-0.82;100.00
70304;BME280;57712;48.752;11.348;2024-01-16T01:56:18;96849.09;;;-0.87;100.00
70304;BME280;57712;48.752;11.348;2024-01-16T01:58:48;96852.28;;;-0.81;100.00
70304;BME280;57712;48.752;11.348;2024-01-16T02:01:17;96850.38;;;-0.80;100.00
70304;BME280;57712;48.752;11.348;2024-01-16T02:03:46;96851.50;;;-0.81;100.00
70304;BME280;57712;48.752;11.348;2024-01-16T02:06:13;96856.44;;;-1.06;100.00
70304;BME280;57712;48.752;11.348;2024-01-16T02:08:42;96856.59;;;-0.99;100.00
70304;BME280;57712;48.752;11.348;2024-01-16T02:11:09;96859.56;;;-1.04;100.00
70304;BME280;57712;48.752;11.348;2024-01-16T02:13:36;96859.72;;;-1.17;100.00
70304;BME280;57712;48.752;11.348;2024-01-16T02:16:17;96858.34;;;-1.30;100.00
70304;BME280;57712;48.752;11.348;2024-01-16T02:18:44;96869.09;;;-1.30;100.00
70304;BME280;57712;48.752;11.348;2024-01-16T02:21:11;96854.59;;;-1.25;100.00
70304;BME280;57712;48.752;11.348;2024-01-16T02:23:39;96862.34;;;-1.43;100.00
70304;BME280;57712;48.752;11.348;2024-01-16T02:26:06;96863.72;;;-1.30;100.00
70304;BME280;57712;48.752;11.348;2024-01-16T02:28:32;96867.06;;;-1.36;100.00
70304;BME280;57712;48.752;11.348;2024-01-16T02:30:59;96860.25;;;-1.53;100.00
70304;BME280;57712;48.752;11.348;2024-01-16T02:33:26;96863.97;;;-1.38;100.00
70304;BME280;57712;48.752;11.348;2024-01-16T02:35:52;96861.72;;;-1.56;100.00
70304;BME280;57712;48.752;11.348;2024-01-16T02:38:19;96850.78;;;-1.66;100.00
70304;BME280;57712;48.752;11.348;2024-01-16T02:40:46;96857.41;;;-1.60;100.00
70304;BME280;57712;48.752;11.348;2024-01-16T02:43:14;96853.81;;;-1.68;100.00
70304;BME280;57712;48.752;11.348;2024-01-16T02:45:40;96861.66;;;-1.59;100.00
70304;BME280;57712;48.752;11.348;2024-01-16T02:48:07;96857.13;;;-1.55;100.00
70304;BME280;57712;48.752;11.348;2024-01-16T02:50:34;96865.31;;;-1.67;100.00
70304;BME280;57712;48.752;11.348;2024-01-16T02:53:01;96867.88;;;-1.55;100.00
70304;BME280;57712;48.752;11.348;2024-01-16T02:55:27;96863.75;;;-1.49;100.00
70304;BME280;57712;48.752;11.348;2024-01-16T02:57:54;96870.41;;;-1.43;100.00
70304;BME280;57712;48.752;11.348;2024-01-16T03:00:21;96874.09;;;-1.51;100.00
70304;BME280;57712;48.752;11.348;2024-01-16T03:02:49;96877.69;;;-1.63;100.00
70304;BME280;57712;48.752;11.348;2024-01-16T03:05:16;96886.53;;;-1.62;100.00
70304;BME280;57712;48.752;11.348;2024-01-16T03:07:43;96891.47;;;-1.45;100.00
70304;BME280;57712;48.752;11.348;2024-01-16T03:10:10;96888.50;;;-1.59;100.00
70304;BME280;57712;48.752;11.348;2024-01-16T03:12:36;96880.03;;;-1.61;100.00
70304;BME280;57712;48.752;11.348;2024-01-16T03:15:03;96894.84;;;-1.67;100.00
70304;BME280;57712;48.752;11.348;2024-01-16T03:17:30;96892.88;;;-1.70;100.00
70304;BME280;57712;48.752;11.348;2024-01-16T03:19:57;96891.06;;;-1.66;100.00
70304;BME280;57712;48.752;11.348;2024-01-16T03:22:24;96897.69;;;-1.60;100.00
70304;BME280;57712;48.752;11.348;2024-01-16T03:24:52;96891.28;;;-1.75;100.00
70304;BME280;57712;48.752;11.348;2024-01-16T03:27:18;96897.00;;;-1.77;100.00
70304;BME280;57712;48.752;11.348;2024-01-16T03:29:45;96903.06;;;-1.60;100.00
70304;BME280;57712;48.752;11.348;2024-01-16T03:32:12;96906.44;;;-1.83;100.00
70304;BME280;57712;48.752;11.348;2024-01-16T03:34:39;96906.38;;;-1.86;100.00
70304;BME280;57712;48.752;11.348;2024-01-16T03:37:07;96913.78;;;-1.80;100.00
70304;BME280;57712;48.752;11.348;2024-01-16T03:39:33;96909.25;;;-1.95;100.00
70304;BME280;57712;48.752;11.348;2024-01-16T03:42:01;96909.81;;;-2.05;100.00
70304;BME280;57712;48.752;11.348;2024-01-16T03:44:27;96902.31;;;-2.15;100.00
70304;BME280;57712;48.752;11.348;2024-01-16T03:46:54;96894.25;;;-2.15;100.00
70304;BME280;57712;48.752;11.348;2024-01-16T03:49:21;96894.09;;;-2.22;100.00
70304;BME280;57712;48.752;11.348;2024-01-16T03:51:48;96890.75;;;-2.35;100.00
70304;BME280;57712;48.752;11.348;2024-01-16T03:54:15;96901.31;;;-2.26;100.00
70304;BME280;57712;48.752;11.348;2024-01-16T03:56:44;96894.88;;;-2.57;100.00
70304;BME280;57712;48.752;11.348;2024-01-16T03:59:11;96900.28;;;-2.53;100.00
70304;BME280;57712;48.752;11.348;2024-01-16T04:01:38;96886.47;;;-2.55;100.00
70304;BME280;57712;48.752;11.348;2024-01-16T04:04:05;96901.06;;;-2.53;100.00
70304;BME280;57712;48.752;11.348;2024-01-16T04:06:33;96889.69;;;-2.50;100.00
70304;BME280;57712;48.752;11.348;2024-01-16T04:09:00;96896.00;;;-2.58;100.00
70304;BME280;57712;48.752;11.348;2024-01-16T04:11:27;96885.69;;;-2.56;100.00
70304;BME280;57712;48.752;11.348;2024-01-16T04:13:54;96899.19;;;-2.68;100.00
70304;BME280;57712;48.752;11.348;2024-01-16T04:16:21;96898.50;;;-2.65;100.00
70304;BME280;57712;48.752;11.348;2024-01-16T04:18:48;96901.88;;;-2.84;100.00
70304;BME280;57712;48.752;11.348;2024-01-16T04:21:14;96901.44;;;-2.70;100.00
70304;BME280;57712;48.752;11.348;2024-01-16T04:23:45;96899.88;;;-2.71;100.00
70304;BME280;57712;48.752;11.348;2024-01-16T04:26:12;96903.00;;;-2.69;100.00
70304;BME280;57712;48.752;11.348;2024-01-16T04:28:39;96900.38;;;-2.81;100.00
70304;BME280;57712;48.752;11.348;2024-01-16T04:31:06;96903.69;;;-2.72;100.00
70304;BME280;57712;48.752;11.348;2024-01-16T04:33:33;96915.09;;;-2.75;100.00
70304;BME280;57712;48.752;11.348;2024-01-16T04:36:00;96909.03;;;-2.72;100.00
70304;BME280;57712;48.752;11.348;2024-01-16T04:38:27;96914.75;;;-2.74;100.00
70304;BME280;57712;48.752;11.348;2024-01-16T04:40:54;96916.56;;;-2.78;100.00
70304;BME280;57712;48.752;11.348;2024-01-16T04:43:20;96928.78;;;-2.80;100.00
70304;BME280;57712;48.752;11.348;2024-01-16T04:45:47;96921.47;;;-2.96;100.00
70304;BME280;57712;48.752;11.348;2024-01-16T04:48:14;96920.91;;;-2.89;100.00
70304;BME280;57712;48.752;11.348;2024-01-16T04:50:41;96933.31;;;-2.97;100.00
70304;BME280;57712;48.752;11.348;2024-01-16T04:53:07;96934.09;;;-3.12;100.00
70304;BME280;57712;48.752;11.348;2024-01-16T04:55:34;96933.22;;;-3.16;100.00
70304;BME280;57712;48.752;11.348;2024-01-16T04:58:01;96934.38;;;-3.01;100.00
70304;BME280;57712;48.752;11.348;2024-01-16T05:00:28;96944.13;;;-3.09;100.00
70304;BME280;57712;48.752;11.348;2024-01-16T05:02:55;96943.56;;;-3.30;100.00
70304;BME280;57712;48.752;11.348;2024-01-16T05:05:22;96943.56;;;-3.14;100.00
70304;BME280;57712;48.752;11.348;2024-01-16T05:07:52;96951.31;;;-3.25;100.00
70304;BME280;57712;48.752;11.348;2024-01-16T05:10:20;96954.00;;;-3.25;100.00
70304;BME280;57712;48.752;11.348;2024-01-16T05:12:47;96961.25;;;-3.26;100.00
70304;BME280;57712;48.752;11.348;2024-01-16T05:15:14;96942.63;;;-3.22;100.00
70304;BME280;57712;48.752;11.348;2024-01-16T05:17:41;96944.13;;;-3.09;100.00
70304;BME280;57712;48.752;11.348;2024-01-16T05:20:08;96937.78;;;-3.16;100.00
70304;BME280;57712;48.752;11.348;2024-01-16T05:22:36;96932.44;;;-3.16;100.00
70304;BME280;57712;48.752;11.348;2024-01-16T05:25:05;96938.09;;;-3.34;100.00
70304;BME280;57712;48.752;11.348;2024-01-16T05:27:34;96933.34;;;-3.25;100.00
70304;BME280;57712;48.752;11.348;2024-01-16T05:30:00;96930.78;;;-3.21;100.00
70304;BME280;57712;48.752;11.348;2024-01-16T05:32:27;96930.09;;;-3.18;100.00
70304;BME280;57712;48.752;11.348;2024-01-16T05:34:54;96931.28;;;-3.31;100.00
70304;BME280;57712;48.752;11.348;2024-01-16T05:37:21;96928.34;;;-3.26;100.00
70304;BME280;57712;48.752;11.348;2024-01-16T05:39:48;96929.03;;;-3.29;100.00
70304;BME280;57712;48.752;11.348;2024-01-16T05:42:14;96934.94;;;-3.08;100.00
70304;BME280;57712;48.752;11.348;2024-01-16T05:44:42;96933.91;;;-3.19;100.00
70304;BME280;57712;48.752;11.348;2024-01-16T05:47:09;96942.56;;;-3.10;100.00
70304;BME280;57712;48.752;11.348;2024-01-16T05:49:35;96927.53;;;-2.99;100.00
70304;BME280;57712;48.752;11.348;2024-01-16T05:52:02;96934.53;;;-2.94;100.00
70304;BME280;57712;48.752;11.348;2024-01-16T05:54:29;96951.09;;;-3.04;100.00
70304;BME280;57712;48.752;11.348;2024-01-16T05:56:55;96951.88;;;-3.04;100.00
70304;BME280;57712;48.752;11.348;2024-01-16T05:59:22;96941.66;;;-3.14;100.00
70304;BME280;57712;48.752;11.348;2024-01-16T06:01:49;96934.34;;;-3.17;100.00
70304;BME280;57712;48.752;11.348;2024-01-16T06:04:16;96942.66;;;-3.34;100.00
70304;BME280;57712;48.752;11.348;2024-01-16T06:06:43;96941.00;;;-3.11;100.00
70304;BME280;57712;48.752;11.348;2024-01-16T06:09:12;96942.56;;;-3.10;100.00
70304;BME280;57712;48.752;11.348;2024-01-16T06:11:40;96947.16;;;-3.38;100.00
70304;BME280;57712;48.752;11.348;2024-01-16T06:14:10;96945.81;;;-3.32;100.00
70304;BME280;57712;48.752;11.348;2024-01-16T06:16:38;96941.81;;;-3.38;100.00
70304;BME280;57712;48.752;11.348;2024-01-16T06:19:05;96946.09;;;-3.50;100.00
70304;BME280;57712;48.752;11.348;2024-01-16T06:21:32;96940.34;;;-3.64;100.00
70304;BME280;57712;48.752;11.348;2024-01-16T06:23:59;96940.97;;;-3.55;100.00
70304;BME280;57712;48.752;11.348;2024-01-16T06:26:35;96941.50;;;-3.49;100.00
70304;BME280;57712;48.752;11.348;2024-01-16T06:29:01;96945.66;;;-3.52;100.00
70304;BME280;57712;48.752;11.348;2024-01-16T06:31:28;96944.31;;;-3.58;100.00
70304;BME280;57712;48.752;11.348;2024-01-16T06:33:55;96934.03;;;-3.43;100.00
70304;BME280;57712;48.752;11.348;2024-01-16T06:36:22;96934.63;;;-3.34;100.00
70304;BME280;57712;48.752;11.348;2024-01-16T06:38:49;96942.53;;;-3.54;100.00
70304;BME280;57712;48.752;11.348;2024-01-16T06:41:16;96941.25;;;-3.44;100.00
70304;BME280;57712;48.752;11.348;2024-01-16T06:43:43;96945.66;;;-3.52;100.00
70304;BME280;57712;48.752;11.348;2024-01-16T06:46:10;96949.00;;;-3.55;100.00
70304;BME280;57712;48.752;11.348;2024-01-16T06:48:39;96955.88;;;-3.41;100.00
70304;BME280;57712;48.752;11.348;2024-01-16T06:51:05;96962.09;;;-3.37;100.00
70304;BME280;57712;48.752;11.348;2024-01-16T06:53:34;96958.50;;;-3.29;100.00
70304;BME280;57712;48.752;11.348;2024-01-16T06:56:01;96949.25;;;-3.32;100.00
70304;BME280;57712;48.752;11.348;2024-01-16T06:58:29;96956.75;;;-3.37;100.00
70304;BME280;57712;48.752;11.348;2024-01-16T07:00:56;96951.94;;;-3.32;100.00
70304;BME280;57712;48.752;11.348;2024-01-16T07:03:23;96949.78;;;-3.26;100.00
70304;BME280;57712;48.752;11.348;2024-01-16T07:05:51;96954.50;;;-3.35;100.00
70304;BME280;57712;48.752;11.348;2024-01-16T07:08:17;96954.16;;;-3.34;100.00
70304;BME280;57712;48.752;11.348;2024-01-16T07:10:44;96956.94;;;-3.30;100.00
70304;BME280;57712;48.752;11.348;2024-01-16T07:13:11;96958.06;;;-3.31;100.00
70304;BME280;57712;48.752;11.348;2024-01-16T07:15:38;96945.88;;;-3.29;100.00
70304;BME280;57712;48.752;11.348;2024-01-16T07:18:05;96954.25;;;-3.30;100.00
70304;BME280;57712;48.752;11.348;2024-01-16T07:20:34;96945.53;;;-3.27;100.00
70304;BME280;57712;48.752;11.348;2024-01-16T07:23:00;96942.84;;;-3.27;100.00
70304;BME280;57712;48.752;11.348;2024-01-16T07:25:27;96950.53;;;-3.26;100.00
70304;BME280;57712;48.752;11.348;2024-01-16T07:27:54;96946.31;;;-3.27;100.00
70304;BME280;57712;48.752;11.348;2024-01-16T07:30:21;96954.44;;;-3.23;100.00
70304;BME280;57712;48.752;11.348;2024-01-16T07:32:47;96953.16;;;-3.13;100.00
70304;BME280;57712;48.752;11.348;2024-01-16T07:35:15;96955.06;;;-3.14;100.00
70304;BME280;57712;48.752;11.348;2024-01-16T07:37:42;96955.25;;;-3.07;100.00
70304;BME280;57712;48.752;11.348;2024-01-16T07:40:09;96949.03;;;-3.11;100.00
70304;BME280;57712;48.752;11.348;2024-01-16T07:42:36;96951.88;;;-3.04;100.00
70304;BME280;57712;48.752;11.348;2024-01-16T07:45:04;96950.66;;;-3.22;100.00
70304;BME280;57712;48.752;11.348;2024-01-16T07:47:31;96946.59;;;-3.16;100.00
70304;BME280;57712;48.752;11.348;2024-01-16T07:50:01;96943.13;;;-3.16;100.00
70304;BME280;57712;48.752;11.348;2024-01-16T07:52:32;96949.28;;;-3.16;100.00
70304;BME280;57712;48.752;11.348;2024-01-16T07:54:59;96946.38;;;-3.11;100.00
70304;BME280;57712;48.752;11.348;2024-01-16T07:57:26;96942.84;;;-2.99;100.00
70304;BME280;57712;48.752;11.348;2024-01-16T07:59:53;96941.44;;;-2.93;100.00
70304;BME280;57712;48.752;11.348;2024-01-16T08:02:19;96952.06;;;-2.97;100.00
70304;BME280;57712;48.752;11.348;2024-01-16T08:04:50;96950.38;;;-2.89;100.00
70304;BME280;57712;48.752;11.348;2024-01-16T08:07:16;96955.88;;;-2.98;100.00
70304;BME280;57712;48.752;11.348;2024-01-16T08:09:44;96957.38;;;-2.69;100.00
70304;BME280;57712;48.752;11.348;2024-01-16T08:12:11;96950.09;;;-2.52;100.00
70304;BME280;57712;48.752;11.348;2024-01-16T08:14:37;96946.41;;;-2.48;100.00
70304;BME280;57712;48.752;11.348;2024-01-16T08:17:04;96949.94;;;-2.44;100.00
70304;BME280;57712;48.752;11.348;2024-01-16T08:19:31;96942.31;;;-2.42;100.00
70304;BME280;57712;48.752;11.348;2024-01-16T08:21:59;96945.47;;;-2.20;100.00
70304;BME280;57712;48.752;11.348;2024-01-16T08:24:26;96935.63;;;-2.16;100.00
70304;BME280;57712;48.752;11.348;2024-01-16T08:26:52;96936.53;;;-2.09;100.00
70304;BME280;57712;48.752;11.348;2024-01-16T08:29:19;96932.75;;;-2.08;100.00
70304;BME280;57712;48.752;11.348;2024-01-16T08:31:46;96935.13;;;-1.87;100.00
70304;BME280;57712;48.752;11.348;2024-01-16T08:34:13;96945.81;;;-2.06;100.00
70304;BME280;57712;48.752;11.348;2024-01-16T08:36:40;96932.66;;;-2.11;100.00
70304;BME280;57712;48.752;11.348;2024-01-16T08:39:07;96941.91;;;-2.09;100.00
70304;BME280;57712;48.752;11.348;2024-01-16T08:41:33;96941.91;;;-2.09;100.00
70304;BME280;57712;48.752;11.348;2024-01-16T08:44:00;96953.09;;;-2.22;100.00
70304;BME280;57712;48.752;11.348;2024-01-16T08:46:27;96949.69;;;-2.39;100.00
70304;BME280;57712;48.752;11.348;2024-01-16T08:48:54;96950.56;;;-1.99;100.00
70304;BME280;57712;48.752;11.348;2024-01-16T08:51:21;96949.09;;;-1.97;100.00
70304;BME280;57712;48.752;11.348;2024-01-16T08:53:47;96950.25;;;-1.59;100.00
70304;BME280;57712;48.752;11.348;2024-01-16T08:56:14;96946.28;;;-1.46;100.00
70304;BME280;57712;48.752;11.348;2024-01-16T08:58:41;96949.63;;;-1.33;100.00
70304;BME280;57712;48.752;11.348;2024-01-16T09:01:07;96938.94;;;-1.30;100.00
70304;BME280;57712;48.752;11.348;2024-01-16T09:03:34;96939.53;;;-0.98;100.00
70304;BME280;57712;48.752;11.348;2024-01-16T09:06:01;96949.88;;;-0.77;100.00
70304;BME280;57712;48.752;11.348;2024-01-16T09:08:29;96935.66;;;-0.54;100.00
70304;BME280;57712;48.752;11.348;2024-01-16T09:10:56;96946.53;;;-0.47;100.00
70304;BME280;57712;48.752;11.348;2024-01-16T09:13:23;96937.56;;;-0.32;100.00
70304;BME280;57712;48.752;11.348;2024-01-16T09:15:50;96944.59;;;-0.24;100.00
70304;BME280;57712;48.752;11.348;2024-01-16T09:18:16;96951.66;;;-0.16;100.00
70304;BME280;57712;48.752;11.348;2024-01-16T09:20:44;96953.16;;;-0.18;100.00
70304;BME280;57712;48.752;11.348;2024-01-16T09:23:10;96955.56;;;-0.59;100.00
70304;BME280;57712;48.752;11.348;2024-01-16T09:25:37;96957.19;;;-0.54;100.00
70304;BME280;57712;48.752;11.348;2024-01-16T09:28:04;96961.41;;;-0.53;100.00
70304;BME280;57712;48.752;11.348;2024-01-16T09:30:31;96967.34;;;-0.44;100.00
70304;BME280;57712;48.752;11.348;2024-01-16T09:32:57;96954.63;;;-0.70;100.00
70304;BME280;57712;48.752;11.348;2024-01-16T09:35:24;96957.78;;;-0.65;100.00
70304;BME280;57712;48.752;11.348;2024-01-16T09:37:51;96957.19;;;-0.54;100.00
70304;BME280;57712;48.752;11.348;2024-01-16T09:40:17;96959.22;;;-0.71;100.00
70304;BME280;57712;48.752;11.348;2024-01-16T09:42:44;96954.81;;;-0.60;100.00
70304;BME280;57712;48.752;11.348;2024-01-16T09:45:13;96954.63;;;-0.21;100.00
70304;BME280;57712;48.752;11.348;2024-01-16T09:47:44;96948.22;;;0.14;100.00
70304;BME280;57712;48.752;11.348;2024-01-16T09:50:14;96943.81;;;0.28;100.00
70304;BME280;57712;48.752;11.348;2024-01-16T09:52:45;96954.00;;;0.42;100.00
70304;BME280;57712;48.752;11.348;2024-01-16T09:55:13;96955.63;;;0.50;100.00
70304;BME280;57712;48.752;11.348;2024-01-16T09:57:41;96946.19;;;0.64;100.00
70304;BME280;57712;48.752;11.348;2024-01-16T10:00:09;96937.91;;;0.49;98.74
70304;BME280;57712;48.752;11.348;2024-01-16T10:02:40;96939.91;;;0.90;96.53
70304;BME280;57712;48.752;11.348;2024-01-16T10:05:09;96944.44;;;0.82;96.55
70304;BME280;57712;48.752;11.348;2024-01-16T10:07:41;96953.25;;;0.45;94.99
70304;BME280;57712;48.752;11.348;2024-01-16T10:10:12;96945.75;;;0.62;100.00
70304;BME280;57712;48.752;11.348;2024-01-16T10:12:39;96945.66;;;-0.06;97.67
70304;BME280;57712;48.752;11.348;2024-01-16T10:15:07;96943.25;;;-0.11;100.00
70304;BME280;57712;48.752;11.348;2024-01-16T10:17:39;96937.19;;;0.52;100.00
70304;BME280;57712;48.752;11.348;2024-01-16T10:20:07;96931.31;;;0.43;100.00
70304;BME280;57712;48.752;11.348;2024-01-16T10:22:34;96933.16;;;0.69;100.00
70304;BME280;57712;48.752;11.348;2024-01-16T10:25:07;96926.72;;;0.47;100.00
70304;BME280;57712;48.752;11.348;2024-01-16T10:27:36;96931.44;;;0.24;100.00
70304;BME280;57712;48.752;11.348;2024-01-16T10:30:03;96934.75;;;0.74;97.81
70304;BME280;57712;48.752;11.348;2024-01-16T10:32:35;96928.16;;;1.05;94.51
70304;BME280;57712;48.752;11.348;2024-01-16T10:35:02;96932.53;;;1.24;94.59
70304;BME280;57712;48.752;11.348;2024-01-16T10:37:46;96930.56;;;1.61;91.91
70304;BME280;57712;48.752;11.348;2024-01-16T10:40:19;96935.22;;;1.64;89.43
70304;BME280;57712;48.752;11.348;2024-01-16T10:43:01;96935.41;;;1.89;88.08
70304;BME280;57712;48.752;11.348;2024-01-16T10:45:28;96944.88;;;2.20;86.14
70304;BME280;57712;48.752;11.348;2024-01-16T10:48:02;96946.31;;;2.07;85.12
70304;BME280;57712;48.752;11.348;2024-01-16T10:50:34;96938.44;;;1.81;83.56
70304;BME280;57712;48.752;11.348;2024-01-16T10:53:06;96934.00;;;2.13;82.70
70304;BME280;57712;48.752;11.348;2024-01-16T10:55:51;96941.00;;;2.21;81.67
70304;BME280;57712;48.752;11.348;2024-01-16T10:58:23;96936.28;;;2.08;82.60
70304;BME280;57712;48.752;11.348;2024-01-16T11:00:52;96935.34;;;1.79;83.14
70304;BME280;57712;48.752;11.348;2024-01-16T11:03:27;96938.31;;;2.21;82.34
70304;BME280;57712;48.752;11.348;2024-01-16T11:05:59;96934.16;;;1.76;83.85
70304;BME280;57712;48.752;11.348;2024-01-16T11:08:27;96938.31;;;2.21;83.76
70304;BME280;57712;48.752;11.348;2024-01-16T11:10:59;96934.16;;;1.76;85.46
70304;BME280;57712;48.752;11.348;2024-01-16T11:13:27;96930.63;;;1.68;86.77
70304;BME280;57712;48.752;11.348;2024-01-16T11:15:55;96930.53;;;2.09;87.58
70304;BME280;57712;48.752;11.348;2024-01-16T11:18:24;96928.28;;;2.25;84.96
70304;BME280;57712;48.752;11.348;2024-01-16T11:20:52;96929.16;;;2.44;82.43
70304;BME280;57712;48.752;11.348;2024-01-16T11:23:33;96925.81;;;2.72;79.65
70304;BME280;57712;48.752;11.348;2024-01-16T11:29:00;96911.44;;;2.57;80.80
70304;BME280;57712;48.752;11.348;2024-01-16T11:31:35;96902.47;;;2.39;80.36
70304;BME280;57712;48.752;11.348;2024-01-16T11:34:02;96903.22;;;2.28;79.42
70304;BME280;57712;48.752;11.348;2024-01-16T11:37:15;96894.53;;;2.74;78.54
70304;BME280;57712;48.752;11.348;2024-01-16T11:39:49;96897.19;;;2.71;79.56
70304;BME280;57712;48.752;11.348;2024-01-16T11:42:25;96895.69;;;2.73;77.95
70304;BME280;57712;48.752;11.348;2024-01-16T11:44:53;96883.38;;;2.94;77.51
70304;BME280;57712;48.752;11.348;2024-01-16T11:47:23;96873.38;;;3.26;76.67
70304;BME280;57712;48.752;11.348;2024-01-16T11:49:51;96870.28;;;3.24;75.32
70304;BME280;57712;48.752;11.348;2024-01-16T11:52:44;96861.38;;;3.02;78.78
70304;BME280;57712;48.752;11.348;2024-01-16T11:55:25;96855.56;;;3.25;74.20
70304;BME280;57712;48.752;11.348;2024-01-16T12:00:50;96859.03;;;3.72;72.23
70304;BME280;57712;48.752;11.348;2024-01-16T12:03:20;96837.78;;;3.28;73.06
70304;BME280;57712;48.752;11.348;2024-01-16T12:06:00;96834.69;;;3.58;73.92
70304;BME280;57712;48.752;11.348;2024-01-16T12:08:30;96840.06;;;3.79;73.26
70304;BME280;57712;48.752;11.348;2024-01-16T12:10:56;96843.97;;;3.39;72.95
70304;BME280;57712;48.752;11.348;2024-01-16T12:13:24;96838.56;;;3.03;74.59
70304;BME280;57712;48.752;11.348;2024-01-16T12:16:03;96847.03;;;2.87;74.83
70304;BME280;57712;48.752;11.348;2024-01-16T12:18:33;96850.91;;;3.68;74.37
70304;BME280;57712;48.752;11.348;2024-01-16T12:21:10;96849.38;;;3.10;74.33
70304;BME280;57712;48.752;11.348;2024-01-16T12:23:38;96837.78;;;3.45;72.90
70304;BME280;57712;48.752;11.348;2024-01-16T12:26:22;96827.72;;;3.10;72.82
70304;BME280;57712;48.752;11.348;2024-01-16T12:28:53;96833.84;;;2.61;74.83
70304;BME280;57712;48.752;11.348;2024-01-16T12:31:26;96827.72;;;3.50;73.82
70304;BME280;57712;48.752;11.348;2024-01-16T12:34:04;96829.25;;;3.43;72.12
70304;BME280;57712;48.752;11.348;2024-01-16T12:36:32;96819.59;;;3.32;76.15
70304;BME280;57712;48.752;11.348;2024-01-16T12:38:59;96823.09;;;3.25;75.00
70304;BME280;57712;48.752;11.348;2024-01-16T12:41:28;96817.69;;;3.25;75.58
70304;BME280;57712;48.752;11.348;2024-01-16T12:44:07;96821.56;;;3.03;75.96
70304;BME280;57712;48.752;11.348;2024-01-16T12:46:42;96809.09;;;2.48;83.75
70304;BME280;57712;48.752;11.348;2024-01-16T12:49:09;96812.84;;;2.15;86.44
70304;BME280;57712;48.752;11.348;2024-01-16T12:51:38;96808.44;;;1.79;91.58
70304;BME280;57712;48.752;11.348;2024-01-16T12:54:15;96808.09;;;1.87;91.86
70304;BME280;57712;48.752;11.348;2024-01-16T12:56:43;96803.63;;;2.23;90.83